Time;durP1;ratioP1;P1;durP2;ratioP2;P2;SDS_P1;SDS_P2;PMS_P1;PMS_P2;Temp;Humidity;BMP_temperature;BMP_pressure;BME280_temperature;BME280_humidity;BME280_pressure;Samples;Min_cycle;Max_cycle;Signal;HPM_P1;HPM_P2
2023/06/22 00:01:49;;;;;;;0.20;0.20;;;;;;;20.44;74.14;97774.69;5044006;28;20108;-71
2023/06/22 00:04:18;;;;;;;0.10;0.10;;;;;;;20.57;73.30;97783.50;5044725;28;20458;-70
2023/06/22 00:06:46;;;;;;;0.10;0.10;;;;;;;20.59;73.36;97776.75;5047875;28;20048;-70
2023/06/22 00:09:13;;;;;;;0.03;0.03;;;;;;;20.59;73.48;97778.66;5042554;28;20049;-72
2023/06/22 00:11:41;;;;;;;0.10;0.10;;;;;;;20.49;73.75;97780.16;5036441;28;20046;-70
2023/06/22 00:14:09;;;;;;;0.03;0.03;;;;;;;20.21;74.90;97783.06;5039063;28;20048;-70
2023/06/22 00:16:36;;;;;;;0.10;0.10;;;;;;;20.21;75.00;97776.81;5033438;28;20060;-71
2023/06/22 00:19:05;;;;;;;0.10;0.10;;;;;;;20.34;74.29;97771.00;5034651;28;20049;-70
2023/06/22 00:21:34;;;;;;;0.10;0.10;;;;;;;20.40;73.85;97770.03;5036048;28;20061;-71
2023/06/22 00:24:02;;;;;;;0.00;0.00;;;;;;;20.25;74.94;97772.50;5034542;28;20500;-71
2023/06/22 00:26:30;;;;;;;0.03;0.03;;;;;;;20.14;75.22;97766.94;5042172;28;20052;-72
2023/06/22 00:28:57;;;;;;;0.20;0.20;;;;;;;19.97;76.40;97766.19;5042027;28;20128;-72
2023/06/22 00:31:25;;;;;;;0.03;0.03;;;;;;;19.84;77.10;97777.38;5018080;28;20081;-72
2023/06/22 00:33:54;;;;;;;0.10;0.10;;;;;;;19.98;76.18;97778.69;5016139;28;20068;-72
2023/06/22 00:36:24;;;;;;;0.13;0.13;;;;;;;20.15;74.99;97786.75;5036197;28;20049;-72
2023/06/22 00:38:53;;;;;;;0.15;0.15;;;;;;;20.21;73.89;97780.34;5012797;28;20081;-72
2023/06/22 00:41:21;;;;;;;0.10;0.10;;;;;;;20.18;74.10;97767.28;5023656;28;20623;-72
2023/06/22 00:43:48;;;;;;;0.10;0.10;;;;;;;20.10;74.17;97763.13;5012005;28;20060;-72
2023/06/22 00:46:16;;;;;;;0.10;0.10;;;;;;;20.09;73.84;97768.78;5024248;28;20522;-73
2023/06/22 00:48:43;;;;;;;0.03;0.03;;;;;;;19.93;74.47;97778.63;5022752;28;20053;-72
2023/06/22 00:51:11;;;;;;;0.13;0.13;;;;;;;19.97;74.40;97777.03;5020662;28;20140;-72
2023/06/22 00:53:40;;;;;;;0.10;0.10;;;;;;;20.03;73.82;97777.94;5038645;28;20127;-72
2023/06/22 00:56:12;;;;;;;0.03;0.03;;;;;;;19.94;73.85;97780.22;5034609;28;20131;-70
2023/06/22 00:58:41;;;;;;;0.00;0.00;;;;;;;19.85;74.33;97773.59;5040917;28;20045;-71
2023/06/22 01:01:09;;;;;;;0.05;0.05;;;;;;;19.73;75.08;97767.47;5041680;28;20037;-71
2023/06/22 01:03:37;;;;;;;0.10;0.10;;;;;;;19.52;75.59;97769.03;5032809;28;20049;-71
2023/06/22 01:06:09;;;;;;;0.10;0.10;;;;;;;19.58;74.98;97764.53;5029959;28;20132;-72
2023/06/22 01:08:41;;;;;;;;;;;;;;;19.60;75.00;97752.41;5041037;28;20052;-72
2023/06/22 01:11:16;;;;;;;;;;;;;;;19.65;74.60;97752.47;5011389;28;19927;-72
2023/06/22 01:13:49;;;;;;;0.10;0.10;;;;;;;19.75;74.35;97749.06;5019731;28;19921;-72
2023/06/22 01:16:19;;;;;;;0.03;0.03;;;;;;;19.76;74.02;97750.72;5041766;28;20069;-72
2023/06/22 01:18:48;;;;;;;0.03;0.03;;;;;;;19.77;73.91;97738.81;5022063;28;20056;-71
2023/06/22 01:21:18;;;;;;;0.00;0.00;;;;;;;19.68;73.95;97729.47;5042357;28;20546;-72
2023/06/22 01:23:55;;;;;;;0.10;0.10;;;;;;;19.55;74.82;97735.25;5038773;28;20056;-72
2023/06/22 01:26:34;;;;;;;0.05;0.05;;;;;;;19.33;76.00;97741.38;5038018;28;20045;-72
2023/06/22 01:29:05;;;;;;;0.03;0.03;;;;;;;19.44;75.79;97729.66;5006905;28;20048;-72
2023/06/22 01:31:34;;;;;;;0.10;0.10;;;;;;;19.58;75.18;97719.31;5014319;28;20144;-72
2023/06/22 01:34:06;;;;;;;0.03;0.03;;;;;;;19.63;75.12;97715.84;5029907;28;20079;-71
2023/06/22 01:36:35;;;;;;;0.10;0.10;;;;;;;19.51;75.17;97720.59;5025391;28;20507;-71
2023/06/22 01:39:03;;;;;;;0.05;0.05;;;;;;;19.34;76.05;97724.06;5023729;28;20049;-72
2023/06/22 01:41:36;;;;;;;0.00;0.00;;;;;;;19.32;76.37;97736.22;5030348;28;20034;-72
2023/06/22 01:44:06;;;;;;;0.03;0.03;;;;;;;19.43;75.77;97744.25;5029373;28;20043;-72
2023/06/22 01:46:34;;;;;;;0.10;0.10;;;;;;;19.48;75.21;97750.81;5022797;28;20037;-72
2023/06/22 01:49:02;;;;;;;0.05;0.05;;;;;;;19.34;76.00;97753.03;5022409;28;20056;-72
2023/06/22 01:51:30;;;;;;;0.03;0.03;;;;;;;18.97;77.79;97741.88;5037704;28;20465;-72
2023/06/22 01:54:00;;;;;;;0.10;0.10;;;;;;;19.09;77.47;97744.53;5032052;28;20057;-72
2023/06/22 01:56:27;;;;;;;0.10;0.10;;;;;;;19.40;75.60;97739.34;5013509;28;20556;-71
2023/06/22 01:59:00;;;;;;;0.00;0.00;;;;;;;19.52;74.91;97749.31;5013858;28;20053;-71
2023/06/22 02:01:34;;;;;;;0.08;0.08;;;;;;;19.14;76.57;97753.53;5017384;28;20053;-71
2023/06/22 02:04:04;;;;;;;0.03;0.03;;;;;;;19.51;75.06;97758.50;5041761;28;20077;-71
2023/06/22 02:06:36;;;;;;;0.13;0.13;;;;;;;19.49;75.09;97749.78;5025269;28;20089;-71
2023/06/22 02:09:10;;;;;;;0.05;0.05;;;;;;;19.29;75.12;97753.78;5039424;28;20458;-71
2023/06/22 02:11:39;;;;;;;0.20;0.20;;;;;;;19.23;75.66;97754.75;5029248;28;20076;-72
2023/06/22 02:14:07;;;;;;;0.03;0.03;;;;;;;19.38;75.20;97762.31;5023088;28;20073;-71
2023/06/22 02:16:37;;;;;;;0.03;0.03;;;;;;;19.09;75.73;97761.56;5022717;28;20091;-71
2023/06/22 02:19:06;;;;;;;0.10;0.10;;;;;;;19.00;76.02;97761.13;5016775;28;20084;-71
2023/06/22 02:21:35;;;;;;;0.10;0.10;;;;;;;18.94;75.99;97756.72;5034801;28;20113;-71
2023/06/22 02:24:02;;;;;;;0.00;0.00;;;;;;;18.94;75.98;97756.72;5010643;28;20059;-72
2023/06/22 02:26:31;;;;;;;0.13;0.13;;;;;;;19.13;75.41;97767.28;5041712;28;20049;-72
2023/06/22 02:29:02;;;;;;;0.17;0.17;;;;;;;19.17;74.82;97772.00;5006808;28;20050;-72
2023/06/22 02:31:30;;;;;;;0.22;0.22;;;;;;;18.88;75.54;97762.28;5038545;28;20048;-71
2023/06/22 02:34:00;;;;;;;0.03;0.03;;;;;;;18.53;77.13;97760.53;5034991;28;20049;-71
2023/06/22 02:36:30;;;;;;;0.17;0.17;;;;;;;18.33;77.80;97754.72;5043235;28;20088;-71
2023/06/22 02:39:02;;;;;;;0.03;0.03;;;;;;;18.34;77.61;97757.19;5036172;28;20030;-71
2023/06/22 02:41:30;;;;;;;0.20;0.20;;;;;;;18.34;77.66;97759.06;5028700;28;20044;-71
2023/06/22 02:43:58;;;;;;;0.17;0.17;;;;;;;18.35;77.36;97752.59;5032812;28;20107;-71
2023/06/22 02:46:25;;;;;;;0.10;0.10;;;;;;;18.29;77.70;97738.16;5025893;28;20041;-71
2023/06/22 02:48:53;;;;;;;0.25;0.25;;;;;;;18.34;77.83;97737.44;5027227;28;20563;-71
2023/06/22 02:51:22;;;;;;;0.10;0.10;;;;;;;18.26;78.77;97733.25;5031941;28;20037;-71
2023/06/22 02:53:56;;;;;;;0.13;0.13;;;;;;;18.25;78.70;97745.13;5022145;28;20084;-71
2023/06/22 02:56:25;;;;;;;0.10;0.10;;;;;;;18.53;77.25;97730.78;5019078;28;20187;-71
2023/06/22 02:59:00;;;;;;;0.20;0.20;;;;;;;18.32;78.20;97732.28;5032567;23;20116;-74
2023/06/22 03:01:39;;;;;;;0.20;0.20;;;;;;;18.15;78.94;97734.09;5003087;28;20517;-74
2023/06/22 03:04:17;;;;;;;0.20;0.20;;;;;;;18.41;78.09;97738.13;5017367;28;20500;-74
2023/06/22 03:06:50;;;;;;;0.20;0.20;;;;;;;18.42;77.22;97736.22;5009622;28;20053;-74
2023/06/22 03:09:18;;;;;;;0.13;0.13;;;;;;;18.27;77.45;97734.88;5012001;28;20038;-73
2023/06/22 03:11:45;;;;;;;0.13;0.13;;;;;;;18.44;77.19;97720.59;5011476;28;20061;-74
2023/06/22 03:14:13;;;;;;;0.10;0.10;;;;;;;18.28;77.60;97714.06;5008872;28;20497;-73
2023/06/22 03:16:41;;;;;;;0.20;0.20;;;;;;;18.31;77.60;97719.00;5013004;28;20515;-73
2023/06/22 03:19:09;;;;;;;0.10;0.10;;;;;;;18.27;77.74;97725.97;5001286;28;20050;-73
2023/06/22 03:21:39;;;;;;;0.08;0.08;;;;;;;18.25;77.80;97728.09;5007644;28;20132;-72
2023/06/22 03:24:08;;;;;;;0.10;0.10;;;;;;;18.47;76.84;97734.47;5012332;28;20056;-71
2023/06/22 03:26:35;;;;;;;0.20;0.20;;;;;;;18.28;76.94;97746.50;5010452;28;20575;-73
2023/06/22 03:29:03;;;;;;;0.10;0.10;;;;;;;18.15;77.47;97757.59;5010887;28;20034;-74
2023/06/22 03:31:31;;;;;;;0.20;0.20;;;;;;;18.17;77.32;97772.50;5004788;28;20168;-74
2023/06/22 03:34:00;;;;;;;0.20;0.20;;;;;;;18.16;76.92;97773.56;5006840;28;20042;-73
2023/06/22 03:36:28;;;;;;;0.13;0.13;;;;;;;18.08;77.43;97789.31;5009404;28;20052;-73
2023/06/22 03:38:56;;;;;;;0.03;0.03;;;;;;;18.09;77.63;97794.47;5010431;28;20041;-74
2023/06/22 03:41:25;;;;;;;0.10;0.10;;;;;;;17.92;78.51;97802.50;5004946;28;20038;-73
2023/06/22 03:43:53;;;;;;;0.13;0.13;;;;;;;18.00;78.22;97814.00;5024405;28;20054;-74
2023/06/22 03:46:20;;;;;;;0.20;0.20;;;;;;;17.79;79.34;97828.91;5007709;28;20164;-72
2023/06/22 03:48:48;;;;;;;0.10;0.10;;;;;;;17.75;79.74;97860.97;5009243;28;20045;-73
2023/06/22 03:51:16;;;;;;;0.22;0.22;;;;;;;17.72;80.83;97888.44;5016314;28;20092;-72
2023/06/22 03:53:43;;;;;;;0.10;0.10;;;;;;;17.62;81.81;97901.66;5003559;28;20512;-73
2023/06/22 03:56:11;;;;;;;0.20;0.20;;;;;;;17.77;81.15;97909.31;5011087;28;20057;-73
2023/06/22 03:58:42;;;;;;;0.10;0.10;;;;;;;17.78;80.92;97914.50;5010751;28;20077;-73
2023/06/22 04:01:11;;;;;;;0.13;0.13;;;;;;;17.90;79.66;97922.63;5011149;28;20060;-73
2023/06/22 04:03:39;;;;;;;0.20;0.20;;;;;;;17.83;79.44;97919.22;4998922;28;20065;-73
2023/06/22 04:06:07;;;;;;;0.03;0.03;;;;;;;17.79;79.12;97916.16;5012952;28;20129;-73
2023/06/22 04:08:34;;;;;;;0.03;0.03;;;;;;;17.81;78.92;97894.31;5014793;28;20041;-73
2023/06/22 04:11:02;;;;;;;0.25;0.25;;;;;;;18.00;78.35;97884.22;5001651;28;20053;-73
2023/06/22 04:13:30;;;;;;;0.10;0.10;;;;;;;18.02;77.73;97882.13;5006865;28;20046;-72
2023/06/22 04:16:01;;;;;;;0.13;0.13;;;;;;;18.02;78.17;97891.03;5009544;28;20047;-72
2023/06/22 04:18:28;;;;;;;0.20;0.20;;;;;;;17.97;78.79;97907.94;5005390;28;20121;-73
2023/06/22 04:20:56;;;;;;;0.13;0.13;;;;;;;17.99;79.23;97899.59;5002684;28;20048;-72
2023/06/22 04:23:23;;;;;;;0.13;0.13;;;;;;;18.07;79.12;97901.13;5008623;28;20414;-72
2023/06/22 04:25:51;;;;;;;0.05;0.05;;;;;;;17.93;79.63;97909.47;5003884;28;20057;-75
2023/06/22 04:28:19;;;;;;;0.03;0.03;;;;;;;17.97;80.12;97902.53;5004124;28;20046;-74
2023/06/22 04:30:47;;;;;;;0.03;0.03;;;;;;;18.04;79.90;97875.44;5005501;28;20049;-73
2023/06/22 04:33:16;;;;;;;0.20;0.20;;;;;;;18.23;79.63;97879.66;5009862;28;20482;-74
2023/06/22 04:35:46;;;;;;;0.20;0.20;;;;;;;18.40;79.15;97874.31;5003959;28;20050;-74
2023/06/22 04:38:14;;;;;;;0.10;0.10;;;;;;;18.59;79.05;97875.84;5007250;28;20046;-74
2023/06/22 04:40:41;;;;;;;0.20;0.20;;;;;;;18.74;78.52;97882.63;5007398;28;20060;-74
2023/06/22 04:43:09;;;;;;;0.10;0.10;;;;;;;18.90;78.17;97869.16;5007744;28;20056;-74
2023/06/22 04:45:37;;;;;;;0.00;0.00;;;;;;;18.93;77.67;97870.56;5000893;28;20088;-73
2023/06/22 04:48:06;;;;;;;0.13;0.13;;;;;;;19.09;77.43;97864.41;5007495;28;20058;-72
2023/06/22 04:50:35;;;;;;;0.10;0.10;;;;;;;19.20;77.14;97839.16;5004877;28;20049;-73
2023/06/22 04:53:05;;;;;;;0.13;0.13;;;;;;;19.29;76.83;97798.97;5009193;28;20049;-73
2023/06/22 04:55:33;;;;;;;0.13;0.13;;;;;;;19.37;76.68;97747.97;5007717;28;20046;-73
2023/06/22 04:58:04;;;;;;;0.13;0.13;;;;;;;19.40;76.29;97690.63;5002456;28;20049;-73
2023/06/22 05:00:32;;;;;;;0.13;0.13;;;;;;;19.37;76.68;97636.97;5006597;28;20069;-74
2023/06/22 05:03:00;;;;;;;0.10;0.10;;;;;;;19.32;77.13;97625.22;5010479;28;20058;-73
2023/06/22 05:05:46;;;;;;;0.03;0.03;;;;;;;19.29;77.10;97645.53;5014383;28;20052;-74
2023/06/22 05:08:14;;;;;;;0.03;0.03;;;;;;;19.27;77.70;97644.94;5013873;28;20412;-73
2023/06/22 05:10:42;;;;;;;0.10;0.10;;;;;;;19.36;77.43;97631.78;5009243;28;20037;-73
2023/06/22 05:13:29;;;;;;;0.17;0.17;;;;;;;19.48;77.20;97604.59;5003611;28;20060;-73
2023/06/22 05:16:01;;;;;;;0.13;0.13;;;;;;;19.63;76.70;97575.03;5011677;28;20046;-74
2023/06/22 05:18:30;;;;;;;0.10;0.10;;;;;;;19.72;76.62;97584.38;5001796;28;20497;-73
2023/06/22 05:20:59;;;;;;;0.03;0.03;;;;;;;19.84;76.18;97586.91;5008331;28;20050;-74
2023/06/22 05:23:27;;;;;;;0.13;0.13;;;;;;;20.02;75.70;97597.44;5012374;28;20096;-73
2023/06/22 05:25:57;;;;;;;0.17;0.17;;;;;;;20.16;74.89;97596.75;5007020;28;20057;-74
2023/06/22 05:28:25;;;;;;;0.13;0.13;;;;;;;20.30;73.56;97601.78;5009580;28;20042;-73
2023/06/22 05:30:52;;;;;;;0.10;0.10;;;;;;;20.39;73.50;97611.09;5015131;28;20045;-74
2023/06/22 05:33:20;;;;;;;0.03;0.03;;;;;;;20.48;73.16;97626.66;5016771;28;20059;-75
2023/06/22 05:35:48;;;;;;;0.03;0.03;;;;;;;20.53;73.17;97625.91;5011321;28;20038;-72
2023/06/22 05:38:17;;;;;;;0.10;0.10;;;;;;;20.65;72.60;97634.69;5006697;28;20405;-73
2023/06/22 05:40:44;;;;;;;0.10;0.10;;;;;;;20.75;71.44;97640.19;5020857;28;20030;-74
2023/06/22 05:43:12;;;;;;;0.03;0.03;;;;;;;20.84;71.84;97651.38;5007741;28;20057;-73
2023/06/22 05:45:39;;;;;;;0.13;0.13;;;;;;;20.91;71.80;97643.84;5004305;28;20647;-73
2023/06/22 05:48:07;;;;;;;0.05;0.05;;;;;;;20.99;71.62;97635.22;5012912;28;20091;-72
2023/06/22 05:50:35;;;;;;;0.00;0.00;;;;;;;21.09;70.51;97637.19;5012376;28;20048;-73
2023/06/22 05:53:02;;;;;;;0.20;0.20;;;;;;;21.21;70.56;97643.28;5013031;28;20064;-73
2023/06/22 05:55:32;;;;;;;0.00;0.00;;;;;;;21.36;70.34;97651.53;5011880;28;20053;-72
2023/06/22 05:58:03;;;;;;;0.00;0.00;;;;;;;21.52;70.10;97655.97;5006419;28;20370;-73
2023/06/22 06:00:30;;;;;;;0.10;0.10;;;;;;;21.55;69.41;97662.78;5000175;28;20049;-73
2023/06/22 06:03:03;;;;;;;0.00;0.00;;;;;;;21.70;69.82;97667.50;5004160;28;20121;-72
2023/06/22 06:05:31;;;;;;;0.20;0.20;;;;;;;21.62;70.09;97674.22;5001837;28;20121;-72
2023/06/22 06:07:59;;;;;;;0.10;0.10;;;;;;;21.70;70.25;97681.84;5008388;28;20045;-73
2023/06/22 06:10:27;;;;;;;0.03;0.03;;;;;;;21.60;70.09;97681.81;5007722;28;20056;-73
2023/06/22 06:12:57;;;;;;;0.03;0.03;;;;;;;21.66;69.85;97680.78;5008413;28;20100;-75
2023/06/22 06:15:24;;;;;;;0.10;0.10;;;;;;;21.67;69.69;97693.28;5002501;28;20050;-73
2023/06/22 06:17:53;;;;;;;0.10;0.10;;;;;;;21.66;69.95;97690.81;5005107;28;20045;-73
2023/06/22 06:20:23;;;;;;;0.03;0.03;;;;;;;21.72;68.83;97695.19;5006669;28;20065;-73
2023/06/22 06:22:50;;;;;;;0.10;0.10;;;;;;;21.78;69.10;97692.25;5008958;28;20152;-72
2023/06/22 06:25:20;;;;;;;0.00;0.00;;;;;;;21.77;69.02;97692.50;5003010;28;20042;-73
2023/06/22 06:27:47;;;;;;;0.00;0.00;;;;;;;21.85;69.02;97702.88;5009103;28;20048;-72
2023/06/22 06:30:18;;;;;;;0.03;0.03;;;;;;;21.95;68.68;97695.59;5003200;28;20044;-71
2023/06/22 06:32:46;;;;;;;0.00;0.00;;;;;;;22.09;66.99;97685.09;5009752;28;20101;-71
2023/06/22 06:35:15;;;;;;;0.10;0.10;;;;;;;22.13;66.20;97702.47;5003611;28;20073;-72
2023/06/22 06:37:45;;;;;;;0.10;0.10;;;;;;;22.11;66.75;97696.53;5006000;28;20116;-72
2023/06/22 06:40:14;;;;;;;0.03;0.03;;;;;;;22.18;66.17;97702.53;5006650;28;20497;-73
2023/06/22 06:42:44;;;;;;;0.10;0.10;;;;;;;22.30;65.86;97705.00;5009187;28;20052;-73
2023/06/22 06:45:13;;;;;;;0.03;0.03;;;;;;;22.35;65.08;97694.13;5002508;28;20099;-72
2023/06/22 06:47:42;;;;;;;0.17;0.17;;;;;;;22.53;64.86;97696.34;5005020;28;20064;-72
2023/06/22 06:50:10;;;;;;;0.10;0.10;;;;;;;22.65;65.05;97683.31;5008694;28;20433;-71
2023/06/22 06:52:39;;;;;;;0.00;0.00;;;;;;;22.73;65.04;97682.00;5005739;28;20054;-74
2023/06/22 06:55:11;;;;;;;0.00;0.00;;;;;;;22.92;65.19;97677.69;5005807;28;20038;-72
2023/06/22 06:57:39;;;;;;;0.10;0.10;;;;;;;22.99;63.54;97686.38;5011659;28;20497;-72
2023/06/22 07:00:11;;;;;;;0.10;0.10;;;;;;;23.13;63.21;97685.84;5001502;28;20038;-72
2023/06/22 07:02:41;;;;;;;0.03;0.03;;;;;;;23.27;63.26;97689.63;5005845;28;20047;-72
2023/06/22 07:05:11;;;;;;;0.10;0.10;;;;;;;23.37;62.80;97686.88;5012208;28;20046;-72
2023/06/22 07:07:38;;;;;;;0.00;0.00;;;;;;;23.44;62.19;97690.16;5008315;28;20074;-75
2023/06/22 07:10:07;;;;;;;0.10;0.10;;;;;;;23.54;61.81;97690.19;5009046;28;20038;-72
2023/06/22 07:12:35;;;;;;;0.10;0.10;;;;;;;23.67;62.55;97689.59;5006845;28;20560;-72
2023/06/22 07:15:03;;;;;;;0.10;0.10;;;;;;;23.84;62.18;97694.75;5009585;28;20045;-73
2023/06/22 07:17:31;;;;;;;0.10;0.10;;;;;;;23.99;62.19;97699.31;5009614;28;20485;-72
2023/06/22 07:19:59;;;;;;;0.00;0.00;;;;;;;24.16;61.26;97691.63;5004919;28;20125;-72
2023/06/22 07:22:28;;;;;;;0.03;0.03;;;;;;;24.20;60.50;97692.69;5010827;28;20050;-73
2023/06/22 07:24:56;;;;;;;0.00;0.00;;;;;;;24.30;60.14;97689.13;5009693;28;20044;-73
2023/06/22 07:27:23;;;;;;;0.03;0.03;;;;;;;24.40;60.55;97683.59;5007722;28;20053;-72
2023/06/22 07:29:53;;;;;;;0.10;0.10;;;;;;;24.59;59.94;97690.06;5000609;28;20038;-72
2023/06/22 07:32:20;;;;;;;0.00;0.00;;;;;;;24.76;58.53;97684.22;5004491;28;20084;-72
2023/06/22 07:34:48;;;;;;;0.10;0.10;;;;;;;24.99;58.45;97688.19;5007334;28;20500;-72
2023/06/22 07:37:15;;;;;;;0.00;0.00;;;;;;;25.16;58.04;97683.13;5009309;28;20038;-73
2023/06/22 07:39:44;;;;;;;0.03;0.03;;;;;;;25.31;56.75;97673.97;5006935;28;20045;-72
2023/06/22 07:42:12;;;;;;;0.10;0.10;;;;;;;25.40;56.39;97678.53;5001495;28;20046;-72
2023/06/22 07:44:39;;;;;;;0.03;0.03;;;;;;;25.57;55.59;97672.59;5003042;28;20042;-72
2023/06/22 07:47:07;;;;;;;0.00;0.00;;;;;;;25.63;54.41;97668.78;5006514;28;20043;-72
2023/06/22 07:49:35;;;;;;;0.03;0.03;;;;;;;25.75;55.52;97673.84;5004561;28;20046;-73
2023/06/22 07:52:02;;;;;;;0.00;0.00;;;;;;;25.49;55.88;97665.03;5011045;28;20301;-72
2023/06/22 07:54:33;;;;;;;0.00;0.00;;;;;;;25.62;56.33;97661.66;5010208;28;20461;-73
2023/06/22 07:57:02;;;;;;;0.00;0.00;;;;;;;25.84;56.62;97667.44;5007965;28;20052;-73
2023/06/22 07:59:29;;;;;;;0.00;0.00;;;;;;;25.93;56.53;97657.47;5009350;28;20117;-73
2023/06/22 08:01:57;;;;;;;0.00;0.00;;;;;;;26.19;56.13;97663.44;5003069;28;20034;-73
2023/06/22 08:04:27;;;;;;;0.00;0.00;;;;;;;26.44;54.68;97656.84;5007393;28;20073;-72
2023/06/22 08:06:54;;;;;;;0.10;0.10;;;;;;;26.67;53.25;97655.16;5012740;28;20053;-72
2023/06/22 08:09:22;;;;;;;0.00;0.00;;;;;;;26.90;52.85;97658.88;5014521;28;20069;-72
2023/06/22 08:11:50;;;;;;;0.00;0.00;;;;;;;27.09;50.86;97648.75;5018252;28;20129;-72
2023/06/22 08:14:18;;;;;;;0.00;0.00;;;;;;;27.26;49.85;97656.41;5012888;28;20046;-73
2023/06/22 08:16:49;;;;;;;0.00;0.00;;;;;;;27.44;50.23;97647.28;5004548;28;20081;-72
2023/06/22 08:19:17;;;;;;;0.00;0.00;;;;;;;27.56;48.84;97646.84;5003372;28;20137;-72
2023/06/22 08:21:45;;;;;;;0.00;0.00;;;;;;;27.75;49.89;97644.81;5001405;28;20453;-72
2023/06/22 08:24:12;;;;;;;0.00;0.00;;;;;;;27.90;50.26;97640.97;5004262;28;20390;-73
2023/06/22 08:26:40;;;;;;;0.00;0.00;;;;;;;28.02;50.35;97647.56;5000824;28;20413;-73
2023/06/22 08:29:07;;;;;;;0.03;0.03;;;;;;;27.83;50.08;97646.03;5006653;28;20124;-72
2023/06/22 08:31:36;;;;;;;0.00;0.00;;;;;;;28.07;50.14;97646.63;5005583;28;20049;-73
2023/06/22 08:34:04;;;;;;;0.03;0.03;;;;;;;28.12;49.37;97639.13;5001193;28;20041;-73
2023/06/22 08:36:32;;;;;;;0.03;0.03;;;;;;;28.19;50.19;97632.41;5000151;28;20061;-73
2023/06/22 08:39:01;;;;;;;0.00;0.00;;;;;;;28.38;49.84;97642.16;5003817;28;20042;-73
2023/06/22 08:41:29;;;;;;;0.03;0.03;;;;;;;28.32;49.99;97632.41;5006871;28;20117;-73
2023/06/22 08:43:57;;;;;;;0.00;0.00;;;;;;;28.49;49.23;97627.06;5004350;28;20064;-72
2023/06/22 08:46:30;;;;;;;0.00;0.00;;;;;;;28.69;49.00;97628.50;5012349;28;20061;-73
2023/06/22 08:49:00;;;;;;;0.00;0.00;;;;;;;28.77;48.58;97621.47;5014163;28;20127;-72
2023/06/22 08:51:28;;;;;;;0.00;0.00;;;;;;;28.95;48.40;97620.50;5014692;28;20041;-73
2023/06/22 08:53:56;;;;;;;0.00;0.00;;;;;;;29.05;48.99;97613.94;5009799;28;20553;-73
2023/06/22 08:56:24;;;;;;;0.08;0.00;;;;;;;29.14;48.69;97617.56;5007417;28;20077;-72
2023/06/22 08:58:51;;;;;;;0.00;0.00;;;;;;;29.10;49.04;97614.63;5011976;28;20416;-73
2023/06/22 09:01:19;;;;;;;0.10;0.10;;;;;;;29.41;47.02;97611.91;5006742;28;20041;-73
2023/06/22 09:03:54;;;;;;;0.00;0.00;;;;;;;29.60;47.23;97610.84;5009410;28;20080;-74
2023/06/22 09:06:24;;;;;;;0.10;0.10;;;;;;;29.76;46.30;97612.06;5013395;28;20145;-73
2023/06/22 09:08:51;;;;;;;0.00;0.00;;;;;;;29.91;45.79;97614.34;5005208;28;20061;-73
2023/06/22 09:11:19;;;;;;;0.00;0.00;;;;;;;30.05;45.48;97604.06;5008645;28;20163;-73
2023/06/22 09:13:49;;;;;;;0.00;0.00;;;;;;;30.19;45.31;97604.75;5012425;28;20490;-73
2023/06/22 09:16:16;;;;;;;0.00;0.00;;;;;;;30.34;44.80;97602.66;5008074;28;20045;-73
2023/06/22 09:18:47;;;;;;;0.00;0.00;;;;;;;30.45;44.60;97603.97;5005481;28;20077;-73
2023/06/22 09:21:15;;;;;;;0.00;0.00;;;;;;;30.57;45.12;97612.44;5005723;28;20050;-73
2023/06/22 09:23:46;;;;;;;0.00;0.00;;;;;;;30.60;44.24;97598.00;5008906;28;20050;-73
2023/06/22 09:26:14;;;;;;;0.00;0.00;;;;;;;30.70;44.84;97594.91;5010183;28;20042;-73
2023/06/22 09:28:41;;;;;;;0.00;0.00;;;;;;;30.77;44.09;97589.72;5009921;28;20042;-73
2023/06/22 09:31:09;;;;;;;0.00;0.00;;;;;;;30.70;44.14;97599.63;5012742;28;20048;-73
2023/06/22 09:33:37;;;;;;;0.00;0.00;;;;;;;30.66;43.43;97582.91;5017126;28;20074;-73
2023/06/22 09:36:07;;;;;;;0.00;0.00;;;;;;;30.35;44.47;97580.28;5009526;28;20058;-73
2023/06/22 09:38:35;;;;;;;0.00;0.00;;;;;;;30.78;43.46;97590.53;5016656;28;20171;-73
2023/06/22 09:41:04;;;;;;;0.00;0.00;;;;;;;30.73;42.65;97591.53;5014822;28;20030;-73
2023/06/22 09:43:34;;;;;;;0.00;0.00;;;;;;;30.26;43.37;97584.97;5016452;28;20050;-74
2023/06/22 09:46:02;;;;;;;0.00;0.00;;;;;;;30.29;43.49;97568.63;5012775;28;20275;-73
2023/06/22 09:48:30;;;;;;;0.00;0.00;;;;;;;30.80;43.07;97569.78;5012245;28;20049;-73
2023/06/22 09:50:58;;;;;;;0.00;0.00;;;;;;;31.02;42.55;97566.00;5010449;28;20038;-74
2023/06/22 09:53:25;;;;;;;0.00;0.00;;;;;;;31.31;42.19;97559.78;5014955;28;20116;-74
2023/06/22 09:55:53;;;;;;;0.00;0.00;;;;;;;31.51;41.10;97561.81;5009131;28;20384;-73
2023/06/22 09:58:22;;;;;;;0.00;0.00;;;;;;;31.37;41.42;97558.44;5005665;28;20049;-73
2023/06/22 10:00:49;;;;;;;0.00;0.00;;;;;;;31.27;41.63;97553.28;5013521;28;20038;-73
2023/06/22 10:03:17;;;;;;;0.00;0.00;;;;;;;31.47;41.72;97551.75;5006801;28;20440;-72
2023/06/22 10:05:44;;;;;;;0.00;0.00;;;;;;;31.57;41.02;97551.38;5013992;28;20041;-74
2023/06/22 10:08:13;;;;;;;0.00;0.00;;;;;;;31.42;41.39;97552.75;5009256;28;20046;-73
2023/06/22 10:10:41;;;;;;;0.00;0.00;;;;;;;31.69;40.95;97551.50;5014490;28;20052;-72
2023/06/22 10:13:10;;;;;;;0.00;0.00;;;;;;;31.86;40.98;97550.63;5011696;28;20474;-73
2023/06/22 10:15:39;;;;;;;0.00;0.00;;;;;;;32.08;39.95;97553.88;5010331;28;20441;-73
2023/06/22 10:18:07;;;;;;;0.00;0.00;;;;;;;32.21;39.65;97546.50;5005317;28;20494;-72
2023/06/22 10:20:35;;;;;;;0.00;0.00;;;;;;;32.07;40.31;97546.75;5011781;28;20145;-73
2023/06/22 10:23:03;;;;;;;0.10;0.10;;;;;;;32.42;39.17;97552.03;5002593;28;20068;-73
2023/06/22 10:25:31;;;;;;;0.00;0.00;;;;;;;32.29;39.30;97542.06;5012050;28;20045;-73
2023/06/22 10:27:59;;;;;;;0.00;0.00;;;;;;;32.48;39.32;97545.16;5008361;28;20049;-73
2023/06/22 10:30:26;;;;;;;0.00;0.00;;;;;;;32.73;38.27;97541.38;4999913;28;20398;-73
2023/06/22 10:32:55;;;;;;;0.00;0.00;;;;;;;32.92;37.93;97535.31;5006082;28;20408;-73
2023/06/22 10:35:23;;;;;;;0.00;0.00;;;;;;;33.19;37.53;97533.88;5011793;28;20053;-74
2023/06/22 10:37:50;;;;;;;0.00;0.00;;;;;;;33.37;37.74;97534.50;5011197;28;20056;-73
2023/06/22 10:40:18;;;;;;;0.00;0.00;;;;;;;33.52;37.35;97533.84;5011782;28;20052;-73
2023/06/22 10:42:46;;;;;;;0.00;0.00;;;;;;;33.25;36.57;97531.72;5009480;28;20052;-73
2023/06/22 10:45:14;;;;;;;0.00;0.00;;;;;;;33.31;37.08;97527.59;5011247;28;20398;-74
2023/06/22 10:47:42;;;;;;;0.00;0.00;;;;;;;33.58;36.47;97523.34;5002948;28;20046;-73
2023/06/22 10:50:12;;;;;;;0.00;0.00;;;;;;;33.65;35.55;97516.06;5009624;28;20053;-72
2023/06/22 10:52:40;;;;;;;0.00;0.00;;;;;;;33.66;36.54;97517.66;5012309;28;20116;-74
2023/06/22 10:55:08;;;;;;;0.00;0.00;;;;;;;33.84;36.39;97521.88;5007148;28;20046;-74
2023/06/22 10:57:36;;;;;;;0.00;0.00;;;;;;;33.85;35.00;97509.59;5003647;28;20050;-75
2023/06/22 11:00:05;;;;;;;0.00;0.00;;;;;;;33.84;35.33;97512.75;5003892;28;20396;-73
2023/06/22 11:02:33;;;;;;;0.00;0.00;;;;;;;33.88;35.18;97508.91;5011530;28;20409;-73
2023/06/22 11:05:01;;;;;;;0.00;0.00;;;;;;;33.51;35.14;97507.31;5007318;28;20038;-73
2023/06/22 11:07:31;;;;;;;0.00;0.00;;;;;;;33.24;36.63;97514.31;5009305;28;20052;-74
2023/06/22 11:09:58;;;;;;;0.00;0.00;;;;;;;33.69;32.71;97507.88;5002328;28;20177;-73
2023/06/22 11:12:26;;;;;;;0.00;0.00;;;;;;;33.84;32.07;97498.88;5007428;28;20049;-73
2023/06/22 11:14:57;;;;;;;0.00;0.00;;;;;;;33.92;31.91;97511.81;5007471;28;20053;-73
2023/06/22 11:17:26;;;;;;;0.00;0.00;;;;;;;34.00;31.31;97498.97;5008405;28;20493;-72
2023/06/22 11:19:54;;;;;;;0.00;0.00;;;;;;;33.79;31.78;97505.47;5007048;28;20057;-73
2023/06/22 11:22:21;;;;;;;0.00;0.00;;;;;;;33.65;31.69;97487.53;5006058;28;20049;-72
2023/06/22 11:24:50;;;;;;;0.00;0.00;;;;;;;33.97;31.69;97488.56;5007892;28;20042;-72
2023/06/22 11:27:18;;;;;;;0.00;0.00;;;;;;;33.95;31.61;97482.59;5009565;28;20045;-72
2023/06/22 11:29:45;;;;;;;0.00;0.00;;;;;;;34.02;31.90;97474.47;5006868;28;20060;-72
2023/06/22 11:32:14;;;;;;;0.00;0.00;;;;;;;34.11;32.19;97469.59;5006807;28;20516;-73
2023/06/22 11:34:41;;;;;;;0.00;0.00;;;;;;;34.17;31.28;97470.97;5006526;28;20076;-74
2023/06/22 11:37:09;;;;;;;0.00;0.00;;;;;;;34.17;31.51;97466.22;5001865;28;20056;-73
2023/06/22 11:39:37;;;;;;;0.00;0.00;;;;;;;34.29;31.67;97467.38;5008450;28;20046;-73
2023/06/22 11:42:11;;;;;;;0.00;0.00;;;;;;;34.30;31.47;97460.66;5008737;28;20038;-73